Time;durP1;ratioP1;P1;durP2;ratioP2;P2;SDS_P1;SDS_P2;PMS_P1;PMS_P2;Temp;Humidity;BMP_temperature;BMP_pressure;BME280_temperature;BME280_humidity;BME280_pressure;Samples;Min_cycle;Max_cycle;Signal;HPM_P1;HPM_P2
2023/08/17 04:32:16;;;;;;;;;23.50;19.25;;;;;31.01;42.43;101288.31;3298892;26;45895;-80
2023/08/17 04:34:43;;;;;;;;;16.50;14.00;;;;;31.11;42.84;101302.78;5055818;28;45428;-78
2023/08/17 04:37:08;;;;;;;;;19.00;15.25;;;;;31.08;42.47;101295.72;5055773;28;45409;-77
2023/08/17 04:39:34;;;;;;;;;22.50;19.00;;;;;31.14;42.68;101294.06;5055672;28;46008;-78
2023/08/17 04:41:59;;;;;;;;;22.75;21.75;;;;;31.15;42.84;101295.78;5055644;28;45271;-79
2023/08/17 04:44:24;;;;;;;;;22.50;22.50;;;;;31.11;42.36;101289.78;5055858;28;45464;-78
2023/08/17 04:46:50;;;;;;;;;21.25;21.25;;;;;31.10;42.78;101298.28;5055335;28;45812;-78
2023/08/17 04:49:15;;;;;;;;;20.75;19.75;;;;;31.09;42.18;101307.66;5055379;28;45932;-78
2023/08/17 04:51:40;;;;;;;;;18.75;17.50;;;;;31.10;42.83;101304.69;5055203;28;46961;-78
2023/08/17 04:54:05;;;;;;;;;17.75;17.75;;;;;31.07;42.95;101298.66;5055821;28;45310;-77
2023/08/17 04:56:31;;;;;;;;;19.75;19.75;;;;;31.07;42.34;101318.91;5055400;28;51682;-79
2023/08/17 04:58:56;;;;;;;;;19.00;19.00;;;;;31.02;42.40;101304.75;5055542;28;46549;-78
2023/08/17 05:01:22;;;;;;;;;22.50;20.50;;;;;30.98;43.14;101308.94;5055112;28;45423;-78
2023/08/17 05:03:47;;;;;;;;;21.00;19.25;;;;;30.96;42.89;101308.28;5055256;28;45333;-78
2023/08/17 05:06:14;;;;;;;;;20.75;20.75;;;;;30.93;43.41;101305.88;5053682;28;45516;-77
2023/08/17 05:08:39;;;;;;;;;21.50;19.50;;;;;31.00;43.29;101301.31;5037707;28;45333;-77
2023/08/17 05:11:04;;;;;;;;;23.00;20.75;;;;;31.02;42.67;101304.75;5054981;28;45366;-78
2023/08/17 05:13:30;;;;;;;;;21.25;21.25;;;;;30.98;42.82;101308.94;5055547;28;46831;-75
2023/08/17 05:15:55;;;;;;;;;21.50;20.75;;;;;30.96;42.80;101307.44;5053875;28;46352;-77
2023/08/17 05:18:21;;;;;;;;;19.25;19.25;;;;;31.01;42.98;101299.41;5054834;28;45350;-76
2023/08/17 05:20:46;;;;;;;;;20.25;19.50;;;;;31.00;43.11;101304.06;5054864;28;45351;-78
2023/08/17 05:23:12;;;;;;;;;21.00;21.00;;;;;31.02;42.78;101293.69;5036713;28;45468;-76
2023/08/17 05:25:37;;;;;;;;;25.00;24.75;;;;;30.97;43.13;101285.06;5054548;28;45758;-76
2023/08/17 05:28:03;;;;;;;;;23.00;22.50;;;;;31.07;42.97;101296.75;5054172;28;45358;-76
2023/08/17 05:30:28;;;;;;;;;26.00;23.25;;;;;31.06;43.02;101295.00;5054480;28;45342;-75
2023/08/17 05:32:53;;;;;;;;;27.00;24.75;;;;;31.07;43.10;101295.88;5055155;28;45242;-78
2023/08/17 05:35:19;;;;;;;;;26.00;25.25;;;;;31.07;42.84;101274.59;5055424;28;45422;-76
2023/08/17 05:37:44;;;;;;;;;22.50;21.50;;;;;31.28;42.77;101284.91;5054297;28;45933;-79
2023/08/17 05:40:10;;;;;;;;;22.50;22.50;;;;;31.15;42.84;101285.56;5054762;28;45378;-77
2023/08/17 05:42:36;;;;;;;;;21.25;21.00;;;;;31.20;42.58;101285.03;5054639;28;45503;-82
2023/08/17 05:45:01;;;;;;;;;21.00;20.25;;;;;31.21;42.92;101289.50;5040528;28;45602;-80
2023/08/17 05:47:26;;;;;;;;;22.50;22.00;;;;;31.19;43.13;101278.63;5048118;28;45540;-74
2023/08/17 05:49:52;;;;;;;;;25.00;25.00;;;;;31.26;42.50;101287.00;5047329;28;50129;-75
2023/08/17 05:52:17;;;;;;;;;22.00;22.00;;;;;31.15;42.71;101266.19;5054268;28;45549;-74
2023/08/17 05:54:42;;;;;;;;;24.50;23.25;;;;;31.19;42.73;101262.00;5054494;28;45539;-79
2023/08/17 05:57:08;;;;;;;;;29.00;26.50;;;;;31.36;42.39;101278.41;5054338;28;45452;-76
2023/08/17 05:59:33;;;;;;;;;25.75;25.75;;;;;31.40;42.33;101293.56;5054757;28;45457;-77
2023/08/17 06:01:58;;;;;;;;;21.75;21.75;;;;;31.44;42.58;101281.94;5036238;28;45379;-75
2023/08/17 06:04:25;;;;;;;;;24.25;22.75;;;;;31.46;42.20;101285.38;5053986;28;51018;-77
2023/08/17 06:06:51;;;;;;;;;27.50;27.00;;;;;31.48;42.79;101274.06;5053879;28;45537;-75
2023/08/17 06:09:16;;;;;;;;;25.25;24.25;;;;;31.42;42.59;101263.78;5054231;28;45444;-75
2023/08/17 06:11:41;;;;;;;;;31.75;29.00;;;;;31.45;42.44;101266.16;5054260;28;45223;-75
2023/08/17 06:14:07;;;;;;;;;25.50;25.50;;;;;31.50;42.08;101277.50;5053765;28;45567;-77
2023/08/17 06:16:32;;;;;;;;;21.00;21.00;;;;;31.55;42.11;101275.03;5053948;28;45417;-75
2023/08/17 06:18:58;;;;;;;;;28.25;24.25;;;;;31.51;42.49;101269.00;5053895;28;45537;-74
2023/08/17 06:21:23;;;;;;;;;22.75;22.75;;;;;31.55;41.88;101266.72;5053421;28;45284;-75
2023/08/17 06:23:48;;;;;;;;;24.00;24.00;;;;;31.67;41.70;101280.94;5053744;28;45358;-74
2023/08/17 06:26:14;;;;;;;;;26.50;23.75;;;;;31.72;41.76;101267.38;5054290;28;45284;-75
2023/08/17 06:28:39;;;;;;;;;25.50;24.50;;;;;32.02;41.28;101282.84;5057877;28;45275;-75
2023/08/17 06:31:04;;;;;;;;;25.75;25.25;;;;;31.81;41.23;101286.47;5057431;28;45440;-75
2023/08/17 06:33:30;;;;;;;;;23.00;23.00;;;;;31.85;41.21;101273.91;5057425;28;47912;-75
2023/08/17 06:35:55;;;;;;;;;26.75;26.75;;;;;31.88;41.09;101272.69;5057380;28;45381;-75
2023/08/17 06:38:20;;;;;;;;;27.50;25.25;;;;;31.70;41.52;101253.72;5057581;28;45281;-75
2023/08/17 06:40:46;;;;;;;;;31.00;28.00;;;;;31.80;41.46;101262.56;5057865;28;45388;-75
2023/08/17 06:43:11;;;;;;;;;21.25;21.25;;;;;31.82;41.83;101262.34;5057442;28;45476;-75
2023/08/17 06:45:37;;;;;;;;;35.25;33.00;;;;;31.85;41.37;101270.28;5057149;28;45569;-75
2023/08/17 06:48:03;;;;;;;;;31.00;28.50;;;;;31.90;41.74;101265.03;5057396;28;45385;-75
2023/08/17 06:50:28;;;;;;;;;25.00;23.25;;;;;31.99;41.57;101271.28;5038876;28;45419;-77
2023/08/17 06:52:54;;;;;;;;;27.00;26.00;;;;;32.07;41.51;101258.13;5057396;28;45357;-76
2023/08/17 06:55:20;;;;;;;;;26.25;26.25;;;;;32.14;40.83;101261.00;5057092;28;45545;-75
2023/08/17 06:57:45;;;;;;;;;28.25;27.00;;;;;32.15;41.51;101252.50;5057376;28;45268;-75
2023/08/17 07:00:11;;;;;;;;;28.75;25.75;;;;;32.18;41.50;101257.66;5057133;28;45298;-75
2023/08/17 07:02:37;;;;;;;;;26.75;26.50;;;;;32.20;40.78;101251.91;5056423;28;45586;-74
2023/08/17 07:05:06;;;;;;;;;29.75;29.75;;;;;32.23;40.94;101255.16;5056269;28;45446;-74
2023/08/17 07:07:33;;;;;;;;;30.50;30.00;;;;;32.21;41.25;101248.94;5056931;28;45371;-75
2023/08/17 07:09:59;;;;;;;;;30.75;28.25;;;;;32.43;40.91;101252.53;5057026;28;45348;-74
2023/08/17 07:12:24;;;;;;;;;30.00;28.75;;;;;32.46;40.62;101248.50;5056936;28;45316;-75
2023/08/17 07:14:51;;;;;;;;;27.00;25.25;;;;;32.52;40.82;101256.03;5056443;28;45455;-74
2023/08/17 07:17:16;;;;;;;;;28.00;28.00;;;;;32.56;40.32;101258.22;5038620;28;45241;-75
2023/08/17 07:19:42;;;;;;;;;26.50;24.75;;;;;32.50;41.01;101255.34;5056535;28;45417;-75
2023/08/17 07:22:07;;;;;;;;;34.50;30.25;;;;;32.56;41.03;101246.25;5057017;28;46416;-75
2023/08/17 07:24:32;;;;;;;;;30.00;28.50;;;;;32.45;40.89;101239.31;5056615;28;45536;-74
2023/08/17 07:26:57;;;;;;;;;22.00;22.00;;;;;32.53;40.34;101244.72;5056813;28;45183;-74
2023/08/17 07:29:23;;;;;;;;;31.50;26.25;;;;;32.63;40.71;101247.16;5056439;28;45482;-75
2023/08/17 07:31:48;;;;;;;;;28.75;27.00;;;;;32.75;40.36;101253.88;5056154;28;50211;-74
2023/08/17 07:34:13;;;;;;;;;28.50;27.50;;;;;32.75;40.41;101234.44;5056254;28;46341;-75
2023/08/17 07:36:39;;;;;;;;;29.75;27.75;;;;;32.89;39.92;101241.81;5056948;28;45434;-75
2023/08/17 07:39:04;;;;;;;;;29.00;29.00;;;;;32.86;40.09;101246.91;5055563;28;45560;-75
2023/08/17 07:41:30;;;;;;;;;32.00;29.75;;;;;32.88;39.98;101248.44;5056556;28;45362;-74
2023/08/17 07:43:55;;;;;;;;;38.00;32.00;;;;;32.92;39.99;101249.72;5056312;28;45551;-75
2023/08/17 07:46:21;;;;;;;;;31.75;26.50;;;;;32.91;40.13;101247.16;5056614;28;45385;-75
2023/08/17 07:48:47;;;;;;;;;29.50;29.50;;;;;32.99;39.88;101253.41;5055844;28;45437;-75
2023/08/17 07:51:12;;;;;;;;;32.50;29.75;;;;;32.99;39.56;101266.44;5056088;28;45323;-76
2023/08/17 07:53:38;;;;;;;;;34.00;30.25;;;;;33.03;39.70;101270.50;5054762;28;46668;-74
2023/08/17 07:56:04;;;;;;;;;27.25;26.50;;;;;33.13;39.61;101268.22;5055587;28;45374;-76
2023/08/17 07:58:29;;;;;;;;;31.00;29.75;;;;;33.13;39.98;101264.59;5055668;28;45386;-74
2023/08/17 08:00:54;;;;;;;;;37.75;35.00;;;;;33.06;39.47;101270.97;5056283;28;45503;-74
2023/08/17 08:03:20;;;;;;;;;31.75;30.25;;;;;33.11;39.93;101263.94;5036466;28;56506;-73
2023/08/17 08:05:45;;;;;;;;;27.00;27.00;;;;;33.17;39.59;101263.13;5055680;28;45295;-73
2023/08/17 08:08:10;;;;;;;;;29.25;25.75;;;;;33.28;39.59;101274.53;5055460;28;45298;-76
2023/08/17 08:10:36;;;;;;;;;29.50;27.75;;;;;33.39;39.32;101265.63;5055958;28;45308;-75
2023/08/17 08:13:01;;;;;;;;;32.75;28.75;;;;;33.38;39.34;101265.81;5054998;28;47785;-74
2023/08/17 08:15:26;;;;;;;;;27.75;27.25;;;;;33.54;39.05;101262.69;5037485;28;45484;-75
2023/08/17 08:17:52;;;;;;;;;30.50;30.00;;;;;33.54;39.02;101270.16;5055378;28;45577;-75
2023/08/17 08:20:18;;;;;;;;;26.50;25.00;;;;;33.59;38.67;101264.84;5055215;28;45241;-76
2023/08/17 08:22:44;;;;;;;;;29.50;25.25;;;;;33.59;38.82;101273.19;5054911;28;47911;-75
2023/08/17 08:25:09;;;;;;;;;27.25;27.00;;;;;33.43;39.20;101263.28;5056001;28;46858;-74
2023/08/17 08:27:35;;;;;;;;;27.75;26.25;;;;;33.40;39.24;101263.69;5054715;28;45956;-74
2023/08/17 08:30:00;;;;;;;;;26.00;26.00;;;;;33.41;39.21;101248.75;5055519;28;45464;-74
2023/08/17 08:32:25;;;;;;;;;28.75;27.25;;;;;33.47;39.20;101255.38;5035283;28;46351;-76
2023/08/17 08:34:51;;;;;;;;;31.75;28.25;;;;;33.53;38.74;101265.66;5055465;28;45483;-76
2023/08/17 08:37:16;;;;;;;;;26.00;25.25;;;;;33.54;39.05;101264.59;5055851;28;45484;-76
2023/08/17 08:39:50;;;;;;;;;26.25;25.50;;;;;33.56;38.78;101259.69;5069683;28;47298;-74
2023/08/17 08:42:16;;;;;;;;;28.00;24.75;;;;;33.62;38.38;101262.50;5054670;28;45485;-75
2023/08/17 08:44:41;;;;;;;;;25.50;23.75;;;;;33.56;38.78;101256.91;5050363;28;45318;-73
2023/08/17 08:47:08;;;;;;;;;29.75;29.75;;;;;33.71;38.50;101263.16;5056994;28;45532;-72
2023/08/17 08:49:39;;;;;;;;;25.25;25.25;;;;;33.69;38.31;101265.28;5037326;28;45382;-74
2023/08/17 08:52:08;;;;;;;;;25.50;23.25;;;;;33.72;38.55;101265.75;5033660;28;46925;-72
2023/08/17 08:54:38;;;;;;;;;25.25;24.25;;;;;33.57;38.39;101231.69;5053743;28;45497;-73
2023/08/17 08:57:09;;;;;;;;;28.50;25.75;;;;;33.65;38.27;101253.75;5055900;28;45373;-73
2023/08/17 08:59:36;;;;;;;;;29.75;25.75;;;;;33.75;38.49;101247.81;5055716;28;45452;-75
2023/08/17 09:02:03;;;;;;;;;26.00;24.25;;;;;33.76;38.50;101250.41;5055882;28;45402;-75
2023/08/17 09:04:29;;;;;;;;;28.50;26.75;;;;;33.82;38.64;101253.38;5055675;28;45522;-72
2023/08/17 09:06:57;;;;;;;;;29.50;26.25;;;;;33.85;38.48;101266.88;5055810;28;45412;-74
2023/08/17 09:09:23;;;;;;;;;28.50;27.50;;;;;33.94;37.72;101266.47;5055987;28;45534;-73
2023/08/17 09:11:52;;;;;;;;;24.25;23.00;;;;;33.92;38.04;101254.72;5055343;28;45408;-73
2023/08/17 09:14:18;;;;;;;;;22.00;22.00;;;;;34.02;37.63;101248.75;5055985;28;45334;-72
2023/08/17 09:16:44;;;;;;;;;26.25;24.25;;;;;33.98;37.93;101250.22;5055755;28;45661;-74
2023/08/17 09:19:10;;;;;;;;;30.00;29.00;;;;;34.00;37.93;101245.31;5055759;28;45470;-73
2023/08/17 09:21:36;;;;;;;;;25.25;25.25;;;;;34.02;38.07;101249.59;5055291;28;45426;-73
2023/08/17 09:24:01;;;;;;;;;29.75;27.75;;;;;34.11;38.15;101234.38;5055493;28;45449;-74
2023/08/17 09:26:32;;;;;;;;;27.00;25.75;;;;;34.12;37.41;101244.44;5054432;28;45642;-71
2023/08/17 09:28:59;;;;;;;;;25.00;22.50;;;;;34.17;37.82;101239.13;5053373;28;45454;-75
2023/08/17 09:31:25;;;;;;;;;23.50;23.50;;;;;34.09;37.52;101232.91;5053655;28;45321;-76
2023/08/17 09:33:51;;;;;;;;;27.00;25.00;;;;;34.24;37.85;101236.38;5053655;28;45425;-76
2023/08/17 09:36:21;;;;;;;;;23.00;22.25;;;;;34.25;38.14;101238.09;5054603;28;45481;-75
2023/08/17 09:38:49;;;;;;;;;25.25;23.75;;;;;34.29;37.60;101233.78;5054308;28;45590;-74
2023/08/17 09:41:14;;;;;;;;;27.75;26.25;;;;;34.26;37.54;101227.81;5054763;28;46057;-75
2023/08/17 09:43:40;;;;;;;;;26.75;23.75;;;;;34.25;37.66;101223.31;5054142;28;45397;-75
2023/08/17 09:46:07;;;;;;;;;28.00;26.75;;;;;34.34;37.38;101230.38;5054961;28;45408;-75
2023/08/17 09:48:32;;;;;;;;;25.50;22.75;;;;;34.42;37.06;101228.22;5034549;28;45351;-74
2023/08/17 09:50:59;;;;;;;;;21.50;21.50;;;;;34.41;36.82;101229.28;5036024;28;47358;-75
2023/08/17 09:53:25;;;;;;;;;22.00;21.00;;;;;34.41;36.72;101218.16;5054260;28;45488;-75
2023/08/17 09:55:51;;;;;;;;;24.25;22.50;;;;;34.35;36.55;101202.31;5054543;28;45364;-76
2023/08/17 09:58:16;;;;;;;;;24.25;19.50;;;;;34.45;36.80;101218.59;5054255;28;45364;-75
2023/08/17 10:00:45;;;;;;;;;24.50;23.75;;;;;34.48;36.91;101218.16;5054428;28;46624;-75
2023/08/17 10:03:13;;;;;;;;;23.75;21.75;;;;;34.55;36.17;101219.84;5053618;28;45606;-75
2023/08/17 10:05:40;;;;;;;;;22.75;21.25;;;;;34.53;35.88;101219.22;5054344;28;45359;-76
2023/08/17 10:08:07;;;;;;;;;20.75;20.25;;;;;34.49;35.89;101217.09;5053879;28;45537;-75
2023/08/17 10:10:38;;;;;;;;;22.75;18.75;;;;;34.53;36.02;101213.66;5053949;28;47445;-75
2023/08/17 10:13:10;;;;;;;;;19.75;18.50;;;;;34.60;35.45;101210.00;5053691;28;45397;-74
2023/08/17 10:15:47;;;;;;;;;22.00;19.00;;;;;34.70;35.40;101213.22;5046238;28;45363;-77
2023/08/17 10:18:23;;;;;;;;;19.50;18.00;;;;;34.70;35.60;101200.16;5053637;28;45618;-76
2023/08/17 10:21:01;;;;;;;;;18.25;18.25;;;;;34.83;35.81;101208.50;5053871;28;45527;-75
2023/08/17 10:23:28;;;;;;;;;18.50;16.25;;;;;34.94;35.31;101211.69;5053506;28;45306;-75
2023/08/17 10:25:53;;;;;;;;;18.75;18.00;;;;;34.95;35.18;101207.81;5054155;28;45303;-75
2023/08/17 10:28:22;;;;;;;;;18.25;14.25;;;;;34.80;34.97;101202.47;5053962;28;45164;-76
2023/08/17 10:30:48;;;;;;;;;22.50;19.50;;;;;34.76;35.48;101196.50;5052792;28;46366;-76
2023/08/17 10:33:15;;;;;;;;;18.50;18.25;;;;;34.83;35.40;101194.56;5052883;28;45484;-76
2023/08/17 10:35:42;;;;;;;;;19.25;17.00;;;;;34.82;34.95;101184.47;5053203;28;45249;-76
2023/08/17 10:38:08;;;;;;;;;14.75;14.25;;;;;34.88;34.13;101185.53;5053408;28;45572;-75
2023/08/17 10:40:40;;;;;;;;;15.25;15.25;;;;;34.93;33.98;101188.53;5053687;28;45251;-74
2023/08/17 10:43:06;;;;;;;;;18.50;14.75;;;;;35.02;33.38;101186.34;5053064;28;45462;-75
2023/08/17 10:45:38;;;;;;;;;17.00;15.75;;;;;34.99;34.15;101189.56;5053685;28;45172;-74
2023/08/17 10:48:06;;;;;;;;;16.50;16.50;;;;;35.06;34.56;101190.41;5053594;28;45464;-76
2023/08/17 10:50:35;;;;;;;;;15.25;15.25;;;;;34.87;34.95;101181.91;5053499;28;45324;-75
2023/08/17 10:53:08;;;;;;;;;17.50;17.50;;;;;34.89;34.15;101187.25;5053722;28;45378;-75
2023/08/17 10:55:37;;;;;;;;;13.50;13.25;;;;;34.83;33.11;101179.75;5053791;28;45466;-75
2023/08/17 10:58:04;;;;;;;;;12.50;12.50;;;;;34.89;32.84;101187.25;5053478;28;45432;-75
2023/08/17 11:00:36;;;;;;;;;14.75;14.75;;;;;34.91;33.56;101188.75;5053588;28;46053;-75
2023/08/17 11:03:11;;;;;;;;;11.50;9.00;;;;;34.93;32.19;101182.97;5035969;28;45420;-75
2023/08/17 11:05:43;;;;;;;;;11.50;11.50;;;;;35.06;32.47;101174.53;5053590;28;45413;-76
2023/08/17 11:08:40;;;;;;;;;12.00;12.00;;;;;35.09;31.38;101176.03;5053306;28;45449;-75
2023/08/17 11:11:14;;;;;;;;;10.00;10.00;;;;;35.12;31.22;101167.25;5044454;28;45611;-75
2023/08/17 11:13:44;;;;;;;;;8.00;8.00;;;;;35.20;30.72;101173.41;5054248;28;45188;-76
2023/08/17 11:16:12;;;;;;;;;9.00;9.00;;;;;35.15;29.85;101166.78;5055174;28;45429;-74
2023/08/17 11:18:38;;;;;;;;;7.00;7.00;;;;;35.15;28.78;101177.94;5056785;28;45868;-75
2023/08/17 11:21:05;;;;;;;;;7.50;7.25;;;;;35.27;29.40;101179.84;5056508;28;46319;-74
2023/08/17 11:23:32;;;;;;;;;11.25;8.75;;;;;35.26;28.66;101177.28;5056158;28;45335;-81
2023/08/17 11:25:58;;;;;;;;;8.50;8.50;;;;;35.65;28.81;101177.03;5056461;28;45495;-76
2023/08/17 11:28:24;;;;;;;;;8.50;7.25;;;;;35.88;28.60;101176.50;5038292;28;45550;-76
2023/08/17 11:31:00;;;;;;;;;8.25;8.25;;;;;35.89;28.28;101163.41;5055569;28;45524;-80
2023/08/17 11:33:27;;;;;;;;;6.25;6.25;;;;;36.06;28.06;101170.16;5055825;28;45358;-78
2023/08/17 11:35:59;;;;;;;;;7.50;6.00;;;;;36.12;27.28;101176.75;5037999;28;45390;-79
2023/08/17 11:38:25;;;;;;;;;10.50;8.25;;;;;35.92;28.07;101160.16;5038041;28;45759;-77
2023/08/17 11:40:52;;;;;;;;;13.75;12.00;;;;;35.98;29.88;101165.66;5037466;28;47230;-78
2023/08/17 11:43:18;;;;;;;;;10.25;10.25;;;;;35.97;29.97;101161.19;5037909;28;46386;-82
2023/08/17 11:45:44;;;;;;;;;15.00;15.00;;;;;36.09;30.31;101152.91;5056009;28;45567;-79
2023/08/17 11:48:09;;;;;;;;;12.50;12.50;;;;;36.33;30.02;101154.88;5055512;28;45390;-80
2023/08/17 11:50:35;;;;;;;;;11.75;11.75;;;;;36.40;30.07;101152.03;5055820;28;46133;-78
2023/08/17 11:53:00;;;;;;;;;14.50;13.75;;;;;36.52;29.61;101149.31;5056538;28;45330;-77
2023/08/17 11:55:26;;;;;;;;;11.25;11.25;;;;;36.59;29.72;101152.88;5056396;28;45220;-78
2023/08/17 11:57:52;;;;;;;;;11.75;10.25;;;;;36.69;28.91;101164.41;5056487;28;45409;-79
2023/08/17 12:00:22;;;;;;;;;13.75;12.25;;;;;36.79;29.05;101155.50;5056621;28;45460;-78
2023/08/17 12:02:48;;;;;;;;;12.75;12.75;;;;;36.84;28.88;101161.22;5056920;28;45309;-80
2023/08/17 12:05:27;;;;;;;;;15.00;14.00;;;;;36.88;28.23;101142.94;5056786;28;45345;-77
2023/08/17 12:07:53;;;;;;;;;9.75;9.75;;;;;37.04;28.28;101145.94;5056693;28;45335;-77
2023/08/17 12:10:19;;;;;;;;;10.75;10.75;;;;;37.08;28.37;101133.22;5056790;28;46598;-80
2023/08/17 12:12:47;;;;;;;;;11.25;11.25;;;;;37.26;27.77;101137.09;5056512;28;45475;-79
2023/08/17 12:15:13;;;;;;;;;13.50;12.50;;;;;37.28;27.61;101134.91;5056313;28;45349;-79
2023/08/17 12:17:49;;;;;;;;;11.50;11.00;;;;;37.27;28.45;101128.44;5056617;28;45165;-79
2023/08/17 12:20:19;;;;;;;;;9.00;9.00;;;;;37.32;28.03;101108.19;5057796;28;46271;-79
2023/08/17 12:22:46;;;;;;;;;11.00;9.50;;;;;37.66;27.90;101131.78;5056673;28;45514;-81
2023/08/17 12:25:11;;;;;;;;;11.00;11.00;;;;;37.64;26.75;101123.63;5055754;28;45323;-78
2023/08/17 12:27:37;;;;;;;;;8.00;8.00;;;;;37.79;26.98;101126.81;5055456;28;45368;-79
2023/08/17 12:30:02;;;;;;;;;10.25;9.00;;;;;37.82;27.27;101126.34;5055761;28;45603;-79
2023/08/17 12:32:28;;;;;;;;;12.00;10.75;;;;;37.93;27.14;101121.03;5037240;28;45949;-78
2023/08/17 12:34:53;;;;;;;;;9.25;9.25;;;;;38.16;26.43;101105.13;5055826;28;45311;-78
2023/08/17 12:37:20;;;;;;;;;10.75;9.50;;;;;38.40;26.23;101121.91;5055016;28;45468;-78
2023/08/17 12:39:47;;;;;;;;;11.75;9.75;;;;;38.48;26.21;101115.94;5037412;28;47506;-79
2023/08/17 12:42:13;;;;;;;;;8.00;8.00;;;;;38.56;25.82;101109.97;5055301;28;45427;-79
2023/08/17 12:44:39;;;;;;;;;8.75;8.75;;;;;38.73;25.68;101122.13;5055765;28;45438;-79
2023/08/17 12:47:04;;;;;;;;;10.50;10.50;;;;;38.86;25.71;101107.88;5055435;28;45473;-79
2023/08/17 12:49:30;;;;;;;;;7.75;7.00;;;;;38.98;24.96;101114.31;5053436;28;45996;-77
2023/08/17 12:51:55;;;;;;;;;9.75;8.50;;;;;39.07;24.70;101105.50;5054391;28;45282;-80
2023/08/17 12:54:21;;;;;;;;;8.00;8.00;;;;;38.97;24.83;101104.19;5037896;28;45608;-78
2023/08/17 12:56:46;;;;;;;;;8.00;8.00;;;;;39.07;24.84;101111.09;5055069;28;45524;-79
2023/08/17 12:59:12;;;;;;;;;10.25;10.25;;;;;39.05;24.24;101086.09;5055466;28;45922;-79
2023/08/17 13:01:38;;;;;;;;;9.75;9.75;;;;;39.06;24.13;101092.56;5055139;28;45270;-80
2023/08/17 13:04:04;;;;;;;;;10.50;8.50;;;;;39.10;24.74;101093.78;5055532;28;45574;-80
2023/08/17 13:06:29;;;;;;;;;9.50;8.00;;;;;39.18;25.13;101091.44;5054239;28;45169;-81
2023/08/17 13:08:54;;;;;;;;;9.00;9.00;;;;;39.29;25.35;101082.13;5030883;28;45879;-78
2023/08/17 13:11:19;;;;;;;;;10.75;9.00;;;;;39.38;25.43;101079.75;5055101;28;45465;-80
2023/08/17 13:13:45;;;;;;;;;9.25;8.75;;;;;39.49;24.90;101089.22;5055508;28;45339;-80
2023/08/17 13:16:11;;;;;;;;;10.75;9.75;;;;;39.48;24.38;101088.38;5054336;28;45227;-79
2023/08/17 13:18:37;;;;;;;;;8.00;8.00;;;;;39.41;24.93;101093.31;5055405;28;45985;-79
2023/08/17 13:21:03;;;;;;;;;9.00;9.00;;;;;39.46;23.85;101072.91;5055350;28;45674;-71
2023/08/17 13:23:28;;;;;;;;;9.00;8.00;;;;;39.62;24.29;101094.53;5055143;28;45377;-73
2023/08/17 13:25:53;;;;;;;;;8.50;7.75;;;;;39.70;24.75;101089.34;5054750;28;45798;-73
2023/08/17 13:28:19;;;;;;;;;7.50;7.50;;;;;39.60;24.35;101083.56;5055021;28;45350;-73
2023/08/17 13:30:44;;;;;;;;;8.25;8.25;;;;;39.63;24.32;101091.47;5054294;28;45415;-73
2023/08/17 13:33:09;;;;;;;;;7.75;6.75;;;;;39.67;24.59;101089.00;5054246;28;45765;-72
2023/08/17 13:35:35;;;;;;;;;11.00;8.25;;;;;39.75;24.36;101082.97;5054425;28;45366;-72
2023/08/17 13:38:03;;;;;;;;;9.25;7.25;;;;;39.91;24.32;101076.53;5054036;28;46194;-74
2023/08/17 13:40:29;;;;;;;;;8.75;8.75;;;;;40.08;24.19;101084.94;5054244;28;45492;-71
2023/08/17 13:42:55;;;;;;;;;10.00;10.00;;;;;40.18;24.17;101078.63;5054292;28;45442;-73
2023/08/17 13:45:20;;;;;;;;;11.00;11.00;;;;;40.33;24.75;101076.91;5054302;28;45499;-71
2023/08/17 13:47:46;;;;;;;;;11.00;9.25;;;;;40.40;24.78;101071.13;5054331;28;46364;-73
2023/08/17 13:50:11;;;;;;;;;10.00;10.00;;;;;40.53;24.53;101069.88;5036092;28;45244;-74
2023/08/17 13:52:36;;;;;;;;;9.50;9.25;;;;;40.66;25.31;101069.53;5053979;28;45516;-74
2023/08/17 13:55:03;;;;;;;;;8.75;8.75;;;;;41.06;24.24;101066.38;5054184;28;49875;-72
2023/08/17 13:57:28;;;;;;;;;9.50;9.50;;;;;41.31;24.14;101058.22;5054560;28;46006;-74
2023/08/17 13:59:53;;;;;;;;;10.75;10.75;;;;;41.42;23.70;101059.19;5036073;28;45426;-73
2023/08/17 14:02:20;;;;;;;;;11.25;9.25;;;;;41.46;23.02;101063.16;5054539;28;45555;-72
2023/08/17 14:04:45;;;;;;;;;10.75;9.00;;;;;41.44;23.50;101054.97;5053872;28;45380;-73
2023/08/17 14:07:11;;;;;;;;;6.25;6.25;;;;;41.78;23.38;101049.09;5054076;28;46114;-73
2023/08/17 14:09:36;;;;;;;;;9.25;9.25;;;;;41.92;22.53;101047.53;5040599;28;46784;-74
2023/08/17 14:12:02;;;;;;;;;9.00;9.00;;;;;41.90;22.63;101055.41;5054618;28;45392;-71
2023/08/17 14:14:28;;;;;;;;;10.50;9.00;;;;;41.96;22.85;101051.50;5053863;28;46241;-74
2023/08/17 14:16:53;;;;;;;;;9.50;9.50;;;;;42.19;22.82;101048.31;5053888;28;47403;-72
2023/08/17 14:19:19;;;;;;;;;14.50;11.50;;;;;41.99;22.95;101048.16;5053740;28;47342;-74
2023/08/17 14:21:44;;;;;;;;;11.75;10.00;;;;;41.94;23.03;101019.13;5054167;28;45555;-73
2023/08/17 14:24:09;;;;;;;;;11.25;11.25;;;;;42.24;22.67;101037.06;5053661;28;55655;-73
2023/08/17 14:26:35;;;;;;;;;8.00;8.00;;;;;42.21;23.02;101040.41;5054163;28;46017;-73
2023/08/17 14:29:00;;;;;;;;;10.00;9.00;;;;;42.71;22.58;101046.63;5054029;28;45894;-74
2023/08/17 14:31:26;;;;;;;;;14.00;11.75;;;;;42.98;22.29;101031.22;5035640;28;45565;-73
2023/08/17 14:33:51;;;;;;;;;10.00;10.00;;;;;43.22;21.49;101036.38;5053681;28;45645;-73
2023/08/17 14:36:17;;;;;;;;;12.25;10.25;;;;;43.23;21.80;101047.38;5053971;28;46099;-73
2023/08/17 14:38:42;;;;;;;;;10.00;8.75;;;;;43.40;22.36;101038.66;5053979;28;45362;-73
2023/08/17 14:41:08;;;;;;;;;14.75;12.25;;;;;43.42;21.85;101032.72;5054187;28;45449;-73
2023/08/17 14:43:33;;;;;;;;;14.75;12.00;;;;;43.52;21.79;101036.41;5053676;28;45403;-72
2023/08/17 14:45:59;;;;;;;;;7.75;7.75;;;;;43.70;21.46;101030.22;5053775;28;45402;-73
2023/08/17 14:48:24;;;;;;;;;9.50;9.50;;;;;43.95;21.83;101020.91;5055675;28;45391;-72
2023/08/17 14:50:50;;;;;;;;;11.75;11.00;;;;;44.14;21.59;101026.81;5057518;28;45326;-72
2023/08/17 14:53:15;;;;;;;;;13.00;10.00;;;;;44.32;21.49;101028.97;5039056;28;45430;-74
2023/08/17 14:55:41;;;;;;;;;10.00;10.00;;;;;44.46;21.38;101015.97;5057023;28;53235;-73
2023/08/17 14:58:06;;;;;;;;;13.00;10.75;;;;;44.77;20.63;101005.38;5057288;28;45373;-74
2023/08/17 15:00:32;;;;;;;;;11.00;10.00;;;;;45.10;20.72;101022.75;5057635;28;45484;-73
2023/08/17 15:02:57;;;;;;;;;9.00;9.00;;;;;45.38;20.84;101013.47;5056811;28;45543;-73
2023/08/17 15:05:23;;;;;;;;;10.25;10.00;;;;;45.71;20.45;101020.31;5057052;28;46020;-73
2023/08/17 15:07:49;;;;;;;;;10.00;9.50;;;;;45.95;19.42;101020.38;5038767;28;45411;-74
2023/08/17 15:10:14;;;;;;;;;10.25;9.00;;;;;46.31;19.66;101012.34;5057366;28;45370;-72
2023/08/17 15:12:39;;;;;;;;;10.00;10.00;;;;;46.30;19.73;101013.50;5056787;28;45575;-73
2023/08/17 15:15:06;;;;;;;;;10.50;10.50;;;;;45.85;20.04;101014.81;5056614;28;45373;-74
2023/08/17 15:17:31;;;;;;;;;11.75;10.50;;;;;45.49;19.89;101008.63;5056852;28;45253;-74
2023/08/17 15:19:58;;;;;;;;;13.75;11.25;;;;;45.28;20.04;101009.88;5056917;28;45286;-74
2023/08/17 15:22:24;;;;;;;;;14.00;11.25;;;;;45.20;20.84;101006.53;5056634;28;45552;-74
2023/08/17 15:24:49;;;;;;;;;14.50;12.50;;;;;44.84;20.70;101010.72;5056595;28;46119;-74
2023/08/17 15:27:15;;;;;;;;;11.75;11.00;;;;;44.48;21.30;101001.56;5056680;28;45338;-72
2023/08/17 15:29:40;;;;;;;;;12.00;12.00;;;;;44.18;21.32;101005.28;5057077;28;45480;-74
2023/08/17 15:32:06;;;;;;;;;13.00;10.50;;;;;43.98;21.72;101000.53;5056462;28;45464;-74
2023/08/17 15:34:31;;;;;;;;;11.00;10.25;;;;;43.95;21.28;101000.28;5056458;28;45509;-74
2023/08/17 15:36:57;;;;;;;;;15.25;11.00;;;;;44.25;21.84;101010.63;5056488;28;45311;-71
2023/08/17 15:39:22;;;;;;;;;13.25;12.00;;;;;44.55;21.57;101007.72;5056508;28;45339;-73